createdAt,value
2018-07-13T00:00:49.921Z,13.93
2018-07-13T00:05:42.599Z,8.67
2018-07-13T00:10:35.217Z,9.53
2018-07-13T00:15:27.829Z,15.23
2018-07-13T00:20:20.405Z,10.87
2018-07-13T00:25:13.016Z,9.03
2018-07-13T00:30:05.618Z,10.90
2018-07-13T00:34:58.200Z,14.00
2018-07-13T00:39:50.865Z,9.47
2018-07-13T00:44:43.439Z,11.23
2018-07-13T00:49:36.052Z,10.20
2018-07-13T00:54:28.650Z,8.93
2018-07-13T00:59:21.294Z,10.10
2018-07-13T01:04:13.854Z,13.33
2018-07-13T01:09:06.442Z,9.93
2018-07-13T01:13:59.144Z,9.80
2018-07-13T01:18:51.773Z,11.30
2018-07-13T01:23:44.432Z,14.57
2018-07-13T01:28:37.102Z,11.10
2018-07-13T01:33:29.705Z,10.30
2018-07-13T01:38:22.269Z,10.73
2018-07-13T01:43:14.868Z,10.30
2018-07-13T01:48:07.522Z,9.97
2018-07-13T01:53:00.119Z,10.03
2018-07-13T01:57:52.731Z,12.37
2018-07-13T02:02:45.368Z,9.23
2018-07-13T02:07:37.957Z,12.60
2018-07-13T02:12:30.541Z,12.07
2018-07-13T02:17:23.460Z,10.20
2018-07-13T02:22:16.143Z,11.10
2018-07-13T02:27:08.901Z,10.40
2018-07-13T02:32:01.529Z,12.17
2018-07-13T02:36:54.176Z,11.70
2018-07-13T02:41:46.748Z,11.17
2018-07-13T02:46:39.394Z,12.33
2018-07-13T02:51:31.994Z,11.93
2018-07-13T02:56:24.613Z,10.63
2018-07-13T03:01:17.228Z,10.67
2018-07-13T03:06:09.848Z,11.37
2018-07-13T03:11:02.468Z,11.47
2018-07-13T03:15:55.031Z,13.07
2018-07-13T03:20:47.625Z,11.17
2018-07-13T03:25:40.220Z,13.80
2018-07-13T03:30:32.877Z,11.20
2018-07-13T03:35:25.503Z,12.03
2018-07-13T03:40:18.143Z,12.17
2018-07-13T03:45:10.748Z,11.83
2018-07-13T03:50:03.384Z,12.87
2018-07-13T03:54:56.073Z,12.77
2018-07-13T03:59:48.736Z,10.97
2018-07-13T04:04:41.364Z,9.63
2018-07-13T04:09:33.982Z,9.63
2018-07-13T04:14:26.542Z,10.10
2018-07-13T04:19:19.113Z,11.13
2018-07-13T04:24:11.802Z,12.50
2018-07-13T04:29:04.576Z,12.30
2018-07-13T04:33:57.272Z,12.97
2018-07-13T04:38:49.891Z,13.80
2018-07-13T04:43:42.624Z,14.07
2018-07-13T04:48:35.270Z,14.40
2018-07-13T04:53:28.011Z,10.47
2018-07-13T04:58:20.683Z,17.70
2018-07-13T05:03:13.242Z,11.43
2018-07-13T05:08:05.850Z,16.50
2018-07-13T05:12:58.493Z,17.93
2018-07-13T05:17:51.241Z,15.27
2018-07-13T05:22:44.087Z,13.73
2018-07-13T05:27:36.764Z,16.70
2018-07-13T05:32:29.496Z,13.47
2018-07-13T05:37:22.218Z,19.50
2018-07-13T05:42:14.825Z,18.20
2018-07-13T05:47:07.428Z,21.27
2018-07-13T05:52:00.364Z,18.40
2018-07-13T05:56:53.140Z,14.70
2018-07-13T06:01:45.722Z,16.00
2018-07-13T06:06:38.601Z,14.17
2018-07-13T06:11:31.364Z,18.53
2018-07-13T06:16:23.993Z,19.10
2018-07-13T06:21:16.705Z,16.90
2018-07-13T06:26:09.366Z,18.03
2018-07-13T06:31:02.068Z,17.03
2018-07-13T06:35:54.655Z,18.37
2018-07-13T06:40:47.716Z,17.33
2018-07-13T06:45:40.855Z,17.67
2018-07-13T06:50:33.893Z,19.07
2018-07-13T06:55:26.463Z,15.83
2018-07-13T07:00:56.937Z,22.77
2018-07-13T07:06:09.516Z,21.90
2018-07-13T07:11:02.208Z,18.73
2018-07-13T07:15:55.096Z,18.10
2018-07-13T07:20:47.772Z,25.30
2018-07-13T07:25:40.504Z,20.80
2018-07-13T07:30:33.176Z,24.83
2018-07-13T07:35:25.826Z,26.07
2018-07-13T07:40:18.496Z,23.10
2018-07-13T07:45:11.228Z,22.13
2018-07-13T07:50:04.135Z,29.87
2018-07-13T07:54:56.815Z,30.43
2018-07-13T07:59:49.649Z,29.50
2018-07-13T08:04:42.252Z,37.10
2018-07-13T08:09:34.971Z,34.73
2018-07-13T08:14:27.741Z,29.93
2018-07-13T08:19:20.440Z,33.27
2018-07-13T08:24:17.880Z,33.63
2018-07-13T08:29:11.479Z,31.10
2018-07-13T08:34:04.318Z,33.47
2018-07-13T08:38:58.070Z,33.50
2018-07-13T08:43:50.655Z,34.63
2018-07-13T08:48:43.345Z,34.83
2018-07-13T08:53:36.058Z,39.67
2018-07-13T08:58:28.756Z,37.60
2018-07-13T09:03:21.503Z,34.03
2018-07-13T09:08:14.144Z,37.03
2018-07-13T09:13:06.867Z,34.73
2018-07-13T09:17:59.512Z,36.90
2018-07-13T09:22:52.228Z,34.40
2018-07-13T09:27:44.991Z,40.27
2018-07-13T09:32:37.650Z,32.90
2018-07-13T09:37:30.751Z,29.13
2018-07-13T09:42:23.387Z,34.07
2018-07-13T09:47:16.025Z,29.87
2018-07-13T09:52:08.614Z,29.00
2018-07-13T09:57:01.280Z,25.93
2018-07-13T10:01:53.924Z,25.00
2018-07-13T10:06:46.620Z,26.47
2018-07-13T10:11:39.661Z,24.43
2018-07-13T10:16:32.373Z,24.53
2018-07-13T10:21:25.652Z,21.63
2018-07-13T10:26:28.523Z,32.27
2018-07-13T10:31:21.288Z,20.57
2018-07-13T10:36:15.877Z,20.77
2018-07-13T10:41:08.601Z,19.40
2018-07-13T10:46:01.368Z,18.23
2018-07-13T10:50:54.012Z,19.50
2018-07-13T10:55:46.641Z,17.30
2018-07-13T11:00:39.202Z,18.07
2018-07-13T11:05:31.939Z,24.30
2018-07-13T11:10:24.621Z,16.40
2018-07-13T11:15:17.204Z,15.97
2018-07-13T11:20:09.831Z,17.30
2018-07-13T11:25:02.679Z,14.33
2018-07-13T11:29:55.423Z,15.17
2018-07-13T11:34:48.116Z,17.80
2018-07-13T11:39:41.258Z,14.10
2018-07-13T11:44:33.876Z,15.37
2018-07-13T11:49:26.445Z,19.97
2018-07-13T11:54:19.032Z,15.23
2018-07-13T11:59:11.831Z,13.53
2018-07-13T12:04:04.493Z,12.90
2018-07-13T12:08:57.176Z,11.63
2018-07-13T12:13:50.081Z,10.90
2018-07-13T12:18:43.140Z,11.00
2018-07-13T12:23:36.083Z,10.87
2018-07-13T12:28:28.772Z,14.40
2018-07-13T12:33:21.411Z,12.20
2018-07-13T12:38:14.024Z,10.33
2018-07-13T12:43:06.855Z,11.80
2018-07-13T12:47:59.456Z,10.70
2018-07-13T12:52:52.623Z,9.47
2018-07-13T12:57:45.299Z,8.93
2018-07-13T13:02:37.925Z,8.17
2018-07-13T13:07:30.729Z,8.70
2018-07-13T13:12:24.128Z,12.17
2018-07-13T13:17:16.860Z,9.40
2018-07-13T13:22:09.528Z,8.70
2018-07-13T13:27:02.192Z,11.67
2018-07-13T13:31:54.777Z,8.43
2018-07-13T13:36:47.657Z,8.27
2018-07-13T13:41:40.263Z,8.47
2018-07-13T13:46:32.878Z,8.90
2018-07-13T13:51:25.558Z,8.67
2018-07-13T13:56:18.158Z,9.17
2018-07-13T14:01:10.782Z,7.70
2018-07-13T14:06:03.522Z,8.30
2018-07-13T14:10:56.230Z,8.40
2018-07-13T14:15:48.903Z,10.53
2018-07-13T14:20:41.512Z,7.57
2018-07-13T14:25:34.158Z,8.00
2018-07-13T14:30:26.776Z,7.00
2018-07-13T14:35:19.383Z,8.47
2018-07-13T14:40:12.018Z,7.40
2018-07-13T14:45:04.812Z,7.17
2018-07-13T14:49:57.483Z,7.30
2018-07-13T14:54:50.145Z,9.60
2018-07-13T14:59:42.867Z,8.37
2018-07-13T15:04:35.468Z,7.30
2018-07-13T15:09:28.153Z,6.80
2018-07-13T15:14:20.841Z,7.60
2018-07-13T15:19:13.517Z,6.70
2018-07-13T15:24:06.146Z,7.63
2018-07-13T15:28:58.995Z,9.07
2018-07-13T15:33:51.638Z,6.70
2018-07-13T15:38:44.260Z,7.40
2018-07-13T15:43:37.058Z,8.10
2018-07-13T15:48:29.836Z,9.00
2018-07-13T15:53:22.571Z,8.27
2018-07-13T15:58:15.145Z,8.47
2018-07-13T16:03:07.788Z,6.43
2018-07-13T16:08:00.447Z,4.80
2018-07-13T16:12:53.069Z,5.13
2018-07-13T16:17:45.731Z,4.07
2018-07-13T16:22:38.394Z,4.87
2018-07-13T16:27:30.961Z,5.57
2018-07-13T16:32:23.577Z,5.37
2018-07-13T16:37:16.317Z,7.33
2018-07-13T16:42:08.936Z,7.90
2018-07-13T16:47:01.700Z,7.90
2018-07-13T16:51:54.374Z,9.07
2018-07-13T16:56:47.157Z,5.97
2018-07-13T17:01:39.960Z,6.43
2018-07-13T17:06:32.607Z,6.97
2018-07-13T17:11:25.228Z,4.97
2018-07-13T17:16:17.891Z,4.47
2018-07-13T17:21:10.620Z,4.70
2018-07-13T17:26:03.303Z,4.37
2018-07-13T17:30:55.927Z,5.27
2018-07-13T17:35:48.491Z,6.07
2018-07-13T17:40:41.103Z,6.93
2018-07-13T17:45:33.681Z,5.17
2018-07-13T17:50:26.317Z,6.37
2018-07-13T17:55:18.927Z,4.90
2018-07-13T18:00:11.559Z,5.50
2018-07-13T18:05:04.409Z,7.47
2018-07-13T18:09:56.979Z,5.60
2018-07-13T18:14:49.601Z,8.20
2018-07-13T18:19:42.205Z,6.97
2018-07-13T18:24:34.764Z,6.13
2018-07-13T18:29:27.583Z,4.60
2018-07-13T18:34:20.990Z,6.60
2018-07-13T18:39:13.573Z,4.07
2018-07-13T18:44:06.191Z,4.20
2018-07-13T18:48:58.774Z,6.27
2018-07-13T18:53:51.363Z,7.23
2018-07-13T18:58:44.053Z,5.97
2018-07-13T19:03:36.737Z,6.40
2018-07-13T19:08:29.345Z,6.20
2018-07-13T19:13:22.005Z,5.30
2018-07-13T19:18:14.613Z,6.53
2018-07-13T19:23:07.165Z,6.07
2018-07-13T19:27:59.722Z,12.67
2018-07-13T19:32:52.506Z,5.93
2018-07-13T19:37:45.090Z,8.27
2018-07-13T19:42:37.626Z,8.17
2018-07-13T19:47:30.233Z,7.37
2018-07-13T19:52:24.007Z,6.73
2018-07-13T19:57:16.845Z,7.13
2018-07-13T20:02:09.455Z,7.93
2018-07-13T20:07:02.156Z,10.03
2018-07-13T20:11:54.812Z,7.40
2018-07-13T20:16:47.632Z,10.07
2018-07-13T20:21:40.330Z,8.60
2018-07-13T20:26:32.979Z,8.80
2018-07-13T20:31:25.617Z,7.43
2018-07-13T20:36:18.287Z,8.00
2018-07-13T20:41:10.907Z,8.60
2018-07-13T20:46:03.490Z,9.13
2018-07-13T20:50:56.070Z,7.87
2018-07-13T20:55:48.709Z,8.53
2018-07-13T21:00:41.235Z,7.43
2018-07-13T21:05:33.860Z,8.35
2018-07-13T21:10:26.382Z,7.53
2018-07-13T21:15:19.001Z,9.37
2018-07-13T21:20:11.658Z,10.77
2018-07-13T21:25:04.207Z,7.30
2018-07-13T21:29:56.725Z,9.03
2018-07-13T21:34:49.418Z,11.07
2018-07-13T21:39:41.972Z,16.83
2018-07-13T21:44:34.708Z,11.53
2018-07-13T21:49:27.160Z,7.90
2018-07-13T21:54:19.941Z,11.63
2018-07-13T21:59:12.543Z,8.90
2018-07-13T22:04:05.415Z,9.30
2018-07-13T22:08:58.172Z,7.53
2018-07-13T22:13:50.715Z,9.90
2018-07-13T22:18:43.294Z,9.53
2018-07-13T22:23:36.053Z,7.47
2018-07-13T22:28:28.661Z,11.70
2018-07-13T22:33:21.299Z,8.97
2018-07-13T22:38:13.919Z,7.50
2018-07-13T22:43:06.593Z,8.63
2018-07-13T22:47:59.182Z,8.57
2018-07-13T22:52:51.885Z,9.13
2018-07-13T22:57:44.408Z,12.07
2018-07-13T23:02:37.143Z,7.43
2018-07-13T23:07:29.835Z,10.73
2018-07-13T23:12:22.460Z,8.73
2018-07-13T23:17:15.179Z,10.27
2018-07-13T23:22:08.772Z,8.50
2018-07-13T23:27:01.523Z,8.60
2018-07-13T23:31:54.185Z,11.23
2018-07-13T23:36:46.788Z,7.63
2018-07-13T23:41:39.426Z,9.73
2018-07-13T23:46:32.079Z,10.33
2018-07-13T23:51:24.679Z,11.73
2018-07-13T23:56:17.310Z,7.20
